Time;durP1;ratioP1;P1;durP2;ratioP2;P2;SDS_P1;SDS_P2;PMS_P1;PMS_P2;Temp;Humidity;BMP_temperature;BMP_pressure;BME280_temperature;BME280_humidity;BME280_pressure;Samples;Min_cycle;Max_cycle;Signal;HPM_P1;HPM_P2
2023/11/04 00:01:13;;;;;;;3.50;1.00;;;8.30;99.90;;;;;;5059237;28;20028;-63
2023/11/04 00:03:39;;;;;;;4.03;1.42;;;8.20;99.90;;;;;;5064601;28;20031;-61
2023/11/04 00:06:05;;;;;;;2.55;1.02;;;8.20;99.90;;;;;;5058329;28;20388;-62
2023/11/04 00:08:31;;;;;;;7.00;1.95;;;8.10;99.90;;;;;;5062706;28;20065;-62
2023/11/04 00:10:56;;;;;;;1.60;0.80;;;8.00;99.90;;;;;;5061980;28;20052;-62
2023/11/04 00:13:22;;;;;;;4.65;0.90;;;8.00;99.90;;;;;;5060457;28;20041;-61
2023/11/04 00:15:47;;;;;;;3.65;1.20;;;8.00;99.90;;;;;;5066643;28;20036;-62
2023/11/04 00:18:13;;;;;;;1.85;0.95;;;7.80;99.90;;;;;;5060181;28;20024;-62
2023/11/04 00:20:39;;;;;;;2.30;0.98;;;7.80;99.90;;;;;;5060882;28;20479;-63
2023/11/04 00:23:05;;;;;;;1.38;0.90;;;7.80;99.90;;;;;;5061088;28;20108;-59
2023/11/04 00:25:30;;;;;;;4.30;1.02;;;7.70;99.90;;;;;;5056575;28;20063;-60
2023/11/04 00:27:56;;;;;;;1.50;0.73;;;7.70;99.90;;;;;;5059996;28;20029;-62
2023/11/04 00:30:21;;;;;;;1.73;0.70;;;7.70;99.90;;;;;;5059120;28;20043;-61
2023/11/04 00:32:48;;;;;;;0.88;0.50;;;7.80;99.90;;;;;;5061924;28;20020;-62
2023/11/04 00:35:14;;;;;;;0.88;0.75;;;7.80;99.90;;;;;;5065260;28;20389;-60
2023/11/04 00:37:40;;;;;;;3.50;0.65;;;8.00;99.90;;;;;;5061074;28;20040;-62
2023/11/04 00:40:06;;;;;;;0.77;0.60;;;8.00;99.90;;;;;;5061395;28;20052;-58
2023/11/04 00:42:32;;;;;;;5.90;0.77;;;8.10;99.90;;;;;;5056347;28;20032;-62
2023/11/04 00:44:58;;;;;;;6.63;0.60;;;8.20;99.90;;;;;;5068925;28;20024;-62
2023/11/04 00:47:24;;;;;;;0.52;0.50;;;8.20;99.90;;;;;;5059754;28;20029;-61
2023/11/04 00:49:49;;;;;;;2.83;0.50;;;8.20;99.90;;;;;;5069571;28;20399;-62
2023/11/04 00:52:15;;;;;;;0.45;0.43;;;8.30;99.90;;;;;;5059987;28;20029;-62
2023/11/04 00:54:41;;;;;;;0.98;0.70;;;8.30;99.90;;;;;;5063330;28;20059;-61
2023/11/04 00:57:06;;;;;;;0.63;0.55;;;8.30;99.90;;;;;;5059576;28;20024;-62
2023/11/04 00:59:32;;;;;;;0.65;0.40;;;8.30;99.90;;;;;;5064184;28;20032;-63
2023/11/04 01:01:57;;;;;;;1.17;0.43;;;8.30;99.90;;;;;;5067656;28;20074;-63
2023/11/04 01:04:23;;;;;;;1.20;0.57;;;8.20;99.90;;;;;;5065438;28;20025;-62
2023/11/04 01:06:48;;;;;;;1.20;0.50;;;8.30;99.90;;;;;;5062696;28;20154;-60
2023/11/04 01:09:15;;;;;;;2.50;0.63;;;8.10;99.90;;;;;;5059903;28;20036;-62
2023/11/04 01:11:43;;;;;;;3.15;0.88;;;8.20;99.90;;;;;;5066818;28;20024;-61
2023/11/04 01:14:10;;;;;;;3.33;0.80;;;8.20;99.90;;;;;;5060828;28;20025;-62
2023/11/04 01:16:35;;;;;;;1.50;0.60;;;8.20;99.90;;;;;;5055586;28;20093;-62
2023/11/04 01:19:01;;;;;;;1.40;0.60;;;8.10;99.90;;;;;;5061510;28;20028;-62
2023/11/04 01:21:26;;;;;;;0.80;0.70;;;8.10;99.90;;;;;;5054265;28;20607;-61
2023/11/04 01:23:53;;;;;;;2.33;0.60;;;8.10;99.90;;;;;;5058388;28;20025;-62
2023/11/04 01:26:19;;;;;;;1.15;0.30;;;8.10;99.90;;;;;;5056587;28;20548;-62
2023/11/04 01:28:44;;;;;;;0.50;0.50;;;8.10;99.90;;;;;;5062275;28;20478;-62
2023/11/04 01:31:10;;;;;;;0.43;0.43;;;8.10;99.90;;;;;;5058011;28;20025;-62
2023/11/04 01:33:35;;;;;;;4.82;0.63;;;8.00;99.90;;;;;;5060987;28;20040;-62
2023/11/04 01:36:01;;;;;;;1.15;0.50;;;8.10;99.90;;;;;;5056873;28;20059;-62
2023/11/04 01:38:27;;;;;;;0.43;0.40;;;8.10;99.90;;;;;;5059560;28;20507;-62
2023/11/04 01:40:54;;;;;;;0.35;0.35;;;8.10;99.90;;;;;;5057586;28;20035;-61
2023/11/04 01:43:29;;;;;;;0.52;0.40;;;8.10;99.90;;;;;;5058365;28;20020;-61
2023/11/04 01:46:19;;;;;;;0.38;0.30;;;8.10;99.90;;;;;;5062137;28;20024;-63
2023/11/04 01:48:44;;;;;;;0.47;0.30;;;8.10;99.90;;;;;;5057271;28;20093;-62
2023/11/04 01:51:12;;;;;;;0.50;0.30;;;8.20;99.90;;;;;;5061730;28;20033;-63
2023/11/04 01:53:39;;;;;;;2.42;0.40;;;8.20;99.90;;;;;;5059242;28;20031;-63
2023/11/04 01:56:07;;;;;;;2.35;0.50;;;8.20;99.90;;;;;;5066204;28;20387;-62
2023/11/04 01:58:34;;;;;;;1.20;0.40;;;8.10;99.90;;;;;;5054997;28;20025;-62
2023/11/04 02:01:00;;;;;;;1.33;0.45;;;8.10;99.90;;;;;;5060169;28;20078;-61
2023/11/04 02:03:27;;;;;;;1.08;0.50;;;8.10;99.90;;;;;;5056680;28;20083;-60
2023/11/04 02:05:53;;;;;;;1.50;0.60;;;8.10;99.90;;;;;;5068694;28;20479;-61
2023/11/04 02:08:19;;;;;;;1.75;0.55;;;8.20;99.90;;;;;;5066226;28;20028;-62
2023/11/04 02:10:45;;;;;;;2.15;0.60;;;8.20;99.90;;;;;;5067768;28;20066;-62
2023/11/04 02:13:10;;;;;;;1.63;0.70;;;8.20;99.90;;;;;;5061106;28;20029;-62
2023/11/04 02:15:36;;;;;;;1.40;0.60;;;8.20;99.90;;;;;;5072047;28;20021;-61
2023/11/04 02:18:03;;;;;;;1.15;0.70;;;8.20;99.90;;;;;;5069073;28;20490;-63
2023/11/04 02:20:31;;;;;;;0.60;0.55;;;8.20;99.90;;;;;;5070846;28;20028;-62
2023/11/04 02:22:56;;;;;;;0.65;0.40;;;8.20;99.90;;;;;;5063139;28;20059;-62
2023/11/04 02:25:22;;;;;;;0.80;0.70;;;8.30;99.90;;;;;;5063506;28;20065;-62
2023/11/04 02:27:47;;;;;;;6.57;0.63;;;8.20;99.90;;;;;;5069037;28;20086;-61
2023/11/04 02:30:13;;;;;;;0.73;0.50;;;8.30;99.90;;;;;;5064645;28;20516;-60
2023/11/04 02:32:39;;;;;;;1.15;0.60;;;8.40;99.90;;;;;;5068155;28;20048;-62
2023/11/04 02:35:05;;;;;;;1.30;0.50;;;8.40;99.90;;;;;;5074087;28;20074;-61
2023/11/04 02:37:31;;;;;;;1.83;0.50;;;8.50;99.90;;;;;;5068902;28;20041;-62
2023/11/04 02:39:57;;;;;;;1.08;0.63;;;8.50;99.90;;;;;;5059451;28;20107;-62
2023/11/04 02:42:23;;;;;;;3.40;0.70;;;8.50;99.90;;;;;;5067955;28;20051;-61
2023/11/04 02:44:48;;;;;;;2.35;0.50;;;8.60;99.90;;;;;;5073005;28;20091;-62
2023/11/04 02:47:14;;;;;;;1.10;0.45;;;8.60;99.90;;;;;;5065908;28;20439;-63
2023/11/04 02:49:40;;;;;;;0.68;0.40;;;8.50;99.90;;;;;;5070986;28;20033;-61
2023/11/04 02:52:05;;;;;;;0.60;0.60;;;8.50;99.90;;;;;;5074832;28;20434;-61
2023/11/04 02:54:31;;;;;;;1.77;0.90;;;8.40;99.90;;;;;;5060551;28;20036;-60
2023/11/04 02:56:56;;;;;;;2.72;0.50;;;8.40;99.90;;;;;;5074888;28;20027;-60
2023/11/04 02:59:22;;;;;;;0.65;0.40;;;8.40;99.90;;;;;;5065353;28;20069;-58
2023/11/04 03:01:47;;;;;;;0.77;0.60;;;8.40;99.90;;;;;;5074732;28;20532;-59
2023/11/04 03:04:13;;;;;;;9.23;0.70;;;8.50;99.90;;;;;;5065533;28;20025;-59
2023/11/04 03:06:39;;;;;;;0.68;0.50;;;8.50;99.90;;;;;;5067708;28;20028;-61
2023/11/04 03:09:06;;;;;;;1.85;0.50;;;8.50;99.90;;;;;;5060862;28;20032;-62
2023/11/04 03:11:31;;;;;;;0.98;0.70;;;8.50;99.90;;;;;;5074055;28;20024;-59
2023/11/04 03:13:57;;;;;;;2.40;0.70;;;8.50;99.90;;;;;;5064646;28;20048;-59
2023/11/04 03:16:22;;;;;;;0.60;0.57;;;8.50;99.90;;;;;;5075363;28;20021;-59
2023/11/04 03:18:48;;;;;;;1.15;0.70;;;8.40;99.90;;;;;;5064060;28;20375;-60
2023/11/04 03:21:15;;;;;;;0.82;0.65;;;8.40;99.90;;;;;;5073759;28;20054;-62
2023/11/04 03:23:41;;;;;;;1.08;0.75;;;8.40;99.90;;;;;;5059568;28;20434;-61
2023/11/04 03:26:10;;;;;;;0.80;0.80;;;8.40;99.90;;;;;;5075576;28;20089;-60
2023/11/04 03:28:36;;;;;;;0.75;0.60;;;8.50;99.90;;;;;;5062650;28;20048;-59
2023/11/04 03:31:03;;;;;;;0.98;0.88;;;8.60;99.90;;;;;;5079918;28;20090;-62
2023/11/04 03:33:29;;;;;;;0.98;0.68;;;8.60;99.90;;;;;;5059444;28;20071;-59
2023/11/04 03:35:55;;;;;;;1.40;0.80;;;8.60;99.90;;;;;;5078433;28;20482;-59
2023/11/04 03:38:20;;;;;;;2.22;0.88;;;8.70;99.90;;;;;;5063254;28;20028;-61
2023/11/04 03:40:46;;;;;;;1.83;0.70;;;8.70;99.90;;;;;;5064908;28;20029;-61
2023/11/04 03:43:12;;;;;;;1.63;0.70;;;8.70;99.90;;;;;;5059780;28;20031;-59
2023/11/04 03:45:37;;;;;;;3.78;0.77;;;8.80;99.90;;;;;;5075320;28;20031;-60
2023/11/04 03:48:03;;;;;;;2.78;0.93;;;8.80;99.90;;;;;;5064655;28;20043;-62
2023/11/04 03:50:29;;;;;;;1.88;0.80;;;8.80;99.90;;;;;;5071032;28;20029;-62
2023/11/04 03:52:55;;;;;;;2.17;0.70;;;8.80;99.90;;;;;;5065790;28;20059;-63
2023/11/04 03:55:21;;;;;;;0.95;0.60;;;8.80;99.90;;;;;;5064260;28;20111;-62
2023/11/04 03:57:47;;;;;;;1.67;0.55;;;8.80;99.90;;;;;;5063886;28;20128;-62
2023/11/04 04:00:14;;;;;;;2.95;0.60;;;8.90;99.90;;;;;;5060992;28;20021;-62
2023/11/04 04:02:40;;;;;;;0.85;0.80;;;8.90;99.90;;;;;;5057261;28;20479;-63
2023/11/04 04:05:06;;;;;;;2.90;0.80;;;8.80;99.90;;;;;;5062136;28;20033;-63
2023/11/04 04:07:32;;;;;;;1.50;1.00;;;8.80;99.90;;;;;;5060984;28;20021;-61
2023/11/04 04:09:58;;;;;;;1.88;0.73;;;8.80;99.90;;;;;;5060305;28;20027;-60
2023/11/04 04:12:23;;;;;;;0.88;0.65;;;8.60;99.90;;;;;;5062723;28;20028;-61
2023/11/04 04:14:49;;;;;;;2.97;0.70;;;8.60;99.90;;;;;;5067828;28;20454;-61
2023/11/04 04:17:14;;;;;;;5.88;0.55;;;8.50;99.90;;;;;;5074828;28;20553;-62
2023/11/04 04:19:40;;;;;;;1.75;0.60;;;8.50;99.90;;;;;;5066484;28;20032;-62
2023/11/04 04:22:06;;;;;;;2.55;0.50;;;8.50;99.90;;;;;;5067951;28;20386;-60
2023/11/04 04:24:32;;;;;;;1.98;0.57;;;8.50;99.90;;;;;;5062627;28;20087;-62
2023/11/04 04:26:57;;;;;;;1.27;0.65;;;8.50;99.90;;;;;;5070082;28;20024;-62
2023/11/04 04:29:23;;;;;;;2.75;0.80;;;8.40;99.90;;;;;;5061351;28;20029;-62
2023/11/04 04:31:51;;;;;;;1.98;0.80;;;8.40;99.90;;;;;;5081761;28;20482;-62
2023/11/04 04:34:17;;;;;;;4.47;0.70;;;8.40;99.90;;;;;;5063242;28;20044;-62
2023/11/04 04:36:45;;;;;;;4.05;0.70;;;8.40;99.90;;;;;;5076025;28;20103;-60
2023/11/04 04:39:11;;;;;;;0.73;0.60;;;8.40;99.90;;;;;;5059173;28;20032;-62
2023/11/04 04:41:36;;;;;;;2.42;0.63;;;8.30;99.90;;;;;;5064928;28;20017;-62
2023/11/04 04:44:02;;;;;;;2.20;0.75;;;8.30;99.90;;;;;;5068189;28;20039;-62
2023/11/04 04:46:29;;;;;;;2.92;1.15;;;8.40;99.90;;;;;;5076134;28;20017;-61
2023/11/04 04:48:55;;;;;;;2.42;1.15;;;8.40;99.90;;;;;;5065266;28;20031;-63
2023/11/04 04:51:21;;;;;;;0.88;0.70;;;8.50;99.90;;;;;;5075917;28;20024;-62
2023/11/04 04:53:47;;;;;;;2.03;0.80;;;8.40;99.90;;;;;;5056862;28;20029;-59
2023/11/04 04:56:14;;;;;;;2.10;0.60;;;8.40;99.90;;;;;;5072037;28;20024;-62
2023/11/04 04:58:41;;;;;;;1.25;0.70;;;8.50;99.90;;;;;;5071217;28;20100;-59
2023/11/04 05:01:07;;;;;;;1.58;0.75;;;8.50;99.90;;;;;;5077219;28;20478;-61
2023/11/04 05:03:33;;;;;;;3.83;0.95;;;8.50;99.90;;;;;;5070896;28;20085;-60
2023/11/04 05:05:59;;;;;;;2.10;0.82;;;8.50;99.90;;;;;;5072088;28;20447;-59
2023/11/04 05:08:24;;;;;;;1.58;0.70;;;8.50;99.90;;;;;;5064159;28;20066;-58
2023/11/04 05:10:50;;;;;;;6.78;0.63;;;8.50;99.90;;;;;;5068846;28;20422;-59
2023/11/04 05:13:18;;;;;;;0.82;0.60;;;8.50;99.90;;;;;;5076077;28;20065;-62
2023/11/04 05:15:43;;;;;;;0.93;0.60;;;8.50;99.90;;;;;;5069527;28;20032;-62
2023/11/04 05:18:09;;;;;;;1.58;0.50;;;8.50;99.90;;;;;;5078733;28;20028;-60
2023/11/04 05:20:34;;;;;;;2.25;0.70;;;8.50;99.90;;;;;;5065393;28;20031;-59
2023/11/04 05:23:00;;;;;;;0.85;0.50;;;8.50;99.90;;;;;;5064944;28;20065;-61
2023/11/04 05:25:27;;;;;;;1.42;0.65;;;8.50;99.90;;;;;;5062897;28;20029;-62
2023/11/04 05:27:52;;;;;;;2.35;0.63;;;8.50;99.90;;;;;;5069993;28;20013;-63
2023/11/04 05:30:19;;;;;;;2.05;0.70;;;8.50;99.90;;;;;;5069849;28;20065;-62
2023/11/04 05:32:45;;;;;;;4.30;0.60;;;8.50;99.90;;;;;;5079457;28;20112;-60
2023/11/04 05:35:10;;;;;;;1.77;0.82;;;8.40;99.90;;;;;;5064918;28;20487;-60
2023/11/04 05:37:36;;;;;;;1.08;0.55;;;8.40;99.90;;;;;;5063557;28;20037;-62
2023/11/04 05:40:03;;;;;;;0.65;0.55;;;8.40;99.90;;;;;;5063208;28;20077;-62
2023/11/04 05:42:28;;;;;;;3.40;0.60;;;8.50;99.90;;;;;;5072942;28;20902;-62
2023/11/04 05:44:56;;;;;;;2.58;0.80;;;8.40;99.90;;;;;;5072448;28;20027;-61
2023/11/04 05:47:21;;;;;;;0.82;0.60;;;8.40;99.90;;;;;;5081570;28;20387;-62
2023/11/04 05:49:47;;;;;;;1.40;0.75;;;8.40;99.90;;;;;;5068942;28;20025;-62
2023/11/04 05:52:12;;;;;;;1.70;0.52;;;8.40;99.90;;;;;;5073352;28;20082;-62
2023/11/04 05:54:38;;;;;;;1.70;0.80;;;8.40;99.90;;;;;;5063717;28;20033;-61
2023/11/04 05:57:03;;;;;;;8.30;0.63;;;8.40;99.90;;;;;;5084747;28;20386;-60
2023/11/04 05:59:30;;;;;;;0.85;0.50;;;8.40;99.90;;;;;;5074100;28;20367;-61
2023/11/04 06:01:55;;;;;;;1.20;0.70;;;8.40;99.90;;;;;;5081799;28;20051;-60
2023/11/04 06:04:21;;;;;;;1.40;0.50;;;8.40;99.90;;;;;;5075648;28;20475;-62
2023/11/04 06:06:47;;;;;;;9.48;2.95;;;8.50;99.90;;;;;;5062767;28;20474;-61
2023/11/04 06:09:13;;;;;;;1.17;0.60;;;8.50;99.90;;;;;;5072379;28;20540;-62
2023/11/04 06:11:39;;;;;;;0.45;0.43;;;8.60;99.90;;;;;;5067762;28;20132;-60
2023/11/04 06:14:04;;;;;;;2.35;0.68;;;8.60;99.90;;;;;;5069977;28;20107;-62
2023/11/04 06:16:34;;;;;;;2.95;0.52;;;8.70;99.90;;;;;;5076616;28;20028;-60
2023/11/04 06:19:00;;;;;;;2.30;0.50;;;8.70;99.90;;;;;;5064747;28;20031;-59
2023/11/04 06:21:25;;;;;;;0.55;0.50;;;8.70;99.90;;;;;;5064980;28;20019;-62
2023/11/04 06:23:51;;;;;;;6.18;0.70;;;8.80;99.90;;;;;;5066313;28;20387;-61
2023/11/04 06:26:21;;;;;;;1.98;0.55;;;8.80;99.90;;;;;;5072109;28;20029;-62
2023/11/04 06:28:47;;;;;;;1.50;0.45;;;8.80;99.90;;;;;;5070324;28;20060;-62
2023/11/04 06:31:13;;;;;;;2.20;0.70;;;8.80;99.90;;;;;;5073369;28;20126;-62
2023/11/04 06:33:38;;;;;;;1.60;0.60;;;8.90;99.90;;;;;;5062097;28;20653;-61
2023/11/04 06:36:04;;;;;;;1.80;0.50;;;8.90;99.90;;;;;;5065143;28;20107;-60
2023/11/04 06:38:30;;;;;;;2.92;0.68;;;9.00;99.90;;;;;;5066403;28;20021;-61
2023/11/04 06:40:56;;;;;;;1.20;0.60;;;9.10;99.90;;;;;;5065235;28;20028;-61
2023/11/04 06:43:21;;;;;;;2.83;0.60;;;9.20;99.90;;;;;;5059276;28;20021;-61
2023/11/04 06:45:47;;;;;;;1.20;0.70;;;9.20;99.90;;;;;;5065811;28;20059;-61
2023/11/04 06:48:12;;;;;;;16.50;5.45;;;9.30;99.90;;;;;;5054788;28;20017;-61
2023/11/04 06:50:38;;;;;;;3.47;1.80;;;9.30;99.90;;;;;;5063411;28;20040;-60
2023/11/04 06:53:04;;;;;;;3.38;1.35;;;9.40;99.90;;;;;;5063307;28;20068;-60
2023/11/04 06:55:32;;;;;;;5.57;2.17;;;9.40;99.90;;;;;;5062326;28;20402;-59
2023/11/04 06:57:58;;;;;;;4.07;1.23;;;9.40;99.90;;;;;;5059307;28;20029;-59
2023/11/04 07:00:24;;;;;;;4.25;1.15;;;9.40;99.90;;;;;;5068108;28;20066;-61
2023/11/04 07:02:49;;;;;;;2.47;1.58;;;9.50;99.90;;;;;;5060248;28;20021;-59
2023/11/04 07:05:15;;;;;;;3.08;0.73;;;9.40;99.90;;;;;;5064726;28;20025;-59
2023/11/04 07:07:42;;;;;;;4.32;0.70;;;9.50;99.90;;;;;;5064865;28;20033;-60
2023/11/04 07:10:09;;;;;;;1.80;0.88;;;9.50;99.90;;;;;;5060060;28;20033;-63
2023/11/04 07:12:35;;;;;;;2.00;0.68;;;9.50;99.90;;;;;;5061927;28;20029;-58
2023/11/04 07:15:03;;;;;;;1.95;0.60;;;9.50;99.90;;;;;;5061265;28;20475;-62
2023/11/04 07:17:30;;;;;;;2.03;0.80;;;9.50;99.90;;;;;;5060223;28;20557;-62
2023/11/04 07:19:57;;;;;;;2.00;0.50;;;9.60;99.90;;;;;;5064836;28;20503;-62
2023/11/04 07:22:25;;;;;;;4.10;0.90;;;9.60;99.90;;;;;;5066729;28;20056;-60
2023/11/04 07:24:51;;;;;;;5.93;0.95;;;9.60;99.90;;;;;;5064479;28;20043;-63
2023/11/04 07:27:16;;;;;;;2.47;0.80;;;9.70;99.90;;;;;;5064341;28;20028;-62
2023/11/04 07:29:42;;;;;;;1.00;0.65;;;9.70;99.90;;;;;;5059396;28;20195;-62
2023/11/04 07:32:07;;;;;;;2.53;0.75;;;9.80;99.90;;;;;;5064889;28;20031;-60
2023/11/04 07:34:33;;;;;;;3.03;0.73;;;9.70;99.90;;;;;;5059978;28;20044;-58
2023/11/04 07:37:00;;;;;;;2.83;1.00;;;9.80;99.90;;;;;;5059871;28;20021;-61
2023/11/04 07:39:28;;;;;;;1.38;0.60;;;9.80;99.90;;;;;;5059875;28;20060;-60
2023/11/04 07:41:54;;;;;;;1.30;0.88;;;9.90;99.90;;;;;;5059679;28;20013;-59
2023/11/04 07:44:20;;;;;;;1.35;0.70;;;9.90;99.90;;;;;;5059749;28;20100;-61
2023/11/04 07:46:46;;;;;;;2.38;0.90;;;9.90;99.90;;;;;;5066857;28;20438;-61
2023/11/04 07:49:11;;;;;;;0.93;0.60;;;9.90;99.90;;;;;;5063730;28;20060;-62
2023/11/04 07:51:38;;;;;;;3.08;0.77;;;9.90;99.90;;;;;;5066022;28;20401;-60
2023/11/04 07:54:05;;;;;;;1.73;1.15;;;10.00;99.90;;;;;;5064235;28;20052;-59
2023/11/04 07:56:30;;;;;;;0.98;0.63;;;10.00;99.90;;;;;;5063538;28;20025;-61
2023/11/04 07:58:56;;;;;;;4.05;0.70;;;10.10;99.90;;;;;;5063940;28;20029;-64
2023/11/04 08:01:21;;;;;;;2.72;1.02;;;10.20;99.90;;;;;;5062117;28;20040;-63
2023/11/04 08:03:47;;;;;;;1.70;0.80;;;10.30;99.90;;;;;;5056867;28;20024;-62
2023/11/04 08:06:16;;;;;;;12.07;3.70;;;10.30;99.90;;;;;;5054665;28;20036;-64
2023/11/04 08:08:42;;;;;;;8.25;3.00;;;10.30;99.90;;;;;;5064835;28;20435;-65
2023/11/04 08:11:08;;;;;;;6.38;1.90;;;10.30;99.90;;;;;;5066492;28;20029;-65
2023/11/04 08:13:34;;;;;;;7.05;1.40;;;10.30;99.90;;;;;;5062950;28;20846;-64
2023/11/04 08:15:59;;;;;;;4.53;1.00;;;10.20;99.90;;;;;;5061058;28;20036;-63
2023/11/04 08:18:31;;;;;;;3.88;1.13;;;10.20;99.90;;;;;;5063901;28;20101;-64
2023/11/04 08:20:57;;;;;;;3.47;1.00;;;10.10;99.90;;;;;;5059735;28;20032;-64
2023/11/04 08:23:22;;;;;;;5.15;1.10;;;10.20;99.90;;;;;;5066923;28;20046;-64
2023/11/04 08:25:48;;;;;;;2.53;0.85;;;10.20;99.90;;;;;;5063198;28;20098;-63
2023/11/04 08:28:14;;;;;;;2.15;0.90;;;10.30;99.90;;;;;;5059731;28;20432;-64
2023/11/04 08:30:40;;;;;;;3.75;0.70;;;10.30;99.90;;;;;;5059427;28;20443;-62
2023/11/04 08:33:05;;;;;;;3.72;0.98;;;10.40;99.90;;;;;;5068305;28;20035;-64
2023/11/04 08:35:31;;;;;;;1.67;1.10;;;10.50;99.90;;;;;;5066325;28;20047;-64
2023/11/04 08:37:57;;;;;;;2.40;0.80;;;10.50;99.90;;;;;;5062924;28;20039;-64
2023/11/04 08:40:22;;;;;;;1.83;1.10;;;10.60;99.90;;;;;;5058786;28;20027;-64
2023/11/04 08:42:48;;;;;;;0.80;0.80;;;10.60;99.90;;;;;;5067144;28;20491;-64
2023/11/04 08:45:14;;;;;;;1.67;1.00;;;10.50;99.90;;;;;;5060821;28;20048;-64
2023/11/04 08:47:40;;;;;;;5.32;2.65;;;10.50;99.90;;;;;;5060746;28;20372;-65
2023/11/04 08:50:07;;;;;;;2.20;1.05;;;10.50;99.90;;;;;;5062109;28;20020;-66
2023/11/04 08:52:33;;;;;;;3.85;0.90;;;10.30;99.90;;;;;;5059534;28;20033;-65
2023/11/04 08:55:01;;;;;;;1.42;1.00;;;10.40;99.90;;;;;;5061641;28;20091;-66
2023/11/04 08:57:27;;;;;;;4.60;1.10;;;10.40;99.90;;;;;;5064244;28;20035;-64
2023/11/04 08:59:53;;;;;;;1.50;0.90;;;10.30;99.90;;;;;;5056630;28;20032;-64
2023/11/04 09:02:20;;;;;;;1.95;0.90;;;10.40;99.90;;;;;;5060255;28;20132;-64
2023/11/04 09:04:46;;;;;;;8.23;1.30;;;10.50;99.90;;;;;;5056817;28;20498;-64
2023/11/04 09:07:12;;;;;;;2.95;1.20;;;10.50;99.90;;;;;;5063310;28;20070;-65
2023/11/04 09:09:37;;;;;;;3.13;1.27;;;10.60;99.90;;;;;;5056128;28;20437;-62
2023/11/04 09:12:03;;;;;;;1.52;1.10;;;10.60;99.90;;;;;;5060559;28;20078;-62
2023/11/04 09:14:29;;;;;;;2.08;1.02;;;10.70;99.90;;;;;;5067888;28;20074;-61
2023/11/04 09:16:54;;;;;;;1.52;0.90;;;10.70;99.90;;;;;;5067013;28;20154;-65
2023/11/04 09:19:20;;;;;;;11.05;4.53;;;10.80;99.90;;;;;;5064937;28;20036;-64
2023/11/04 09:21:46;;;;;;;2.50;1.10;;;10.90;99.90;;;;;;5066229;28;20025;-64
2023/11/04 09:24:11;;;;;;;2.08;1.20;;;10.90;99.90;;;;;;5069780;28;20033;-65
2023/11/04 09:26:37;;;;;;;3.90;0.95;;;11.10;99.90;;;;;;5067600;28;20393;-64
2023/11/04 09:29:05;;;;;;;3.33;0.82;;;11.20;99.90;;;;;;5074082;28;20036;-64
2023/11/04 09:31:30;;;;;;;2.70;0.80;;;11.20;99.90;;;;;;5066117;28;20086;-64
2023/11/04 09:33:56;;;;;;;4.07;0.90;;;11.20;99.90;;;;;;5064558;28;20503;-65
2023/11/04 09:36:21;;;;;;;2.70;0.80;;;11.30;99.90;;;;;;5064507;28;20044;-65
2023/11/04 09:38:47;;;;;;;3.28;0.88;;;11.30;99.90;;;;;;5063506;28;20060;-65
2023/11/04 09:41:12;;;;;;;1.52;0.80;;;11.30;99.90;;;;;;5070461;28;20495;-64
2023/11/04 09:43:39;;;;;;;5.82;1.25;;;11.30;99.90;;;;;;5067517;28;20037;-65
2023/11/04 09:46:07;;;;;;;4.47;1.27;;;11.30;99.90;;;;;;5069918;28;20045;-64
2023/11/04 09:48:37;;;;;;;3.70;1.10;;;11.50;99.90;;;;;;5064609;28;20017;-65
2023/11/04 09:51:05;;;;;;;3.30;1.00;;;11.50;99.90;;;;;;5066938;28;20108;-63
2023/11/04 09:53:32;;;;;;;5.20;1.20;;;11.50;99.90;;;;;;5072843;28;20038;-64
2023/11/04 09:55:58;;;;;;;2.08;0.90;;;11.60;99.90;;;;;;5074543;28;20032;-64
2023/11/04 09:58:25;;;;;;;5.60;0.80;;;11.70;99.90;;;;;;5071701;28;20070;-65
2023/11/04 10:00:51;;;;;;;6.40;1.30;;;11.80;99.90;;;;;;5061629;28;20043;-64
2023/11/04 10:03:17;;;;;;;3.83;0.80;;;11.90;99.90;;;;;;5067592;28;20028;-65
2023/11/04 10:05:44;;;;;;;1.88;0.80;;;12.00;99.90;;;;;;5068439;28;20040;-64
2023/11/04 10:08:11;;;;;;;7.13;1.17;;;12.00;99.90;;;;;;5069228;28;20025;-64
2023/11/04 10:10:36;;;;;;;4.32;0.85;;;12.10;99.90;;;;;;5074238;28;20039;-64
2023/11/04 10:13:02;;;;;;;5.32;0.90;;;12.10;99.90;;;;;;5069551;28;20106;-64
2023/11/04 10:15:27;;;;;;;2.10;0.88;;;12.20;99.90;;;;;;5064237;28;20130;-64
2023/11/04 10:17:54;;;;;;;3.47;0.98;;;12.10;99.90;;;;;;5061359;28;20029;-62
2023/11/04 10:20:20;;;;;;;1.77;0.68;;;12.10;99.90;;;;;;5071996;28;20035;-63
2023/11/04 10:22:46;;;;;;;3.60;1.00;;;12.10;99.90;;;;;;5067250;28;20024;-65
2023/11/04 10:25:12;;;;;;;1.88;0.68;;;12.00;99.90;;;;;;5065188;28;20364;-63
2023/11/04 10:27:38;;;;;;;3.20;1.15;;;11.90;99.90;;;;;;5066294;28;20071;-65
2023/11/04 10:30:06;;;;;;;6.75;0.90;;;11.90;99.90;;;;;;5067033;28;20029;-64
2023/11/04 10:32:38;;;;;;;3.60;0.85;;;11.90;99.90;;;;;;5064058;28;20052;-61
2023/11/04 10:35:09;;;;;;;6.82;1.13;;;11.90;99.90;;;;;;5063710;28;20074;-64
2023/11/04 10:37:35;;;;;;;8.32;0.93;;;11.80;99.90;;;;;;5062640;28;20060;-64
2023/11/04 10:40:07;;;;;;;3.38;1.02;;;11.70;99.90;;;;;;5065880;28;20032;-66
2023/11/04 10:42:38;;;;;;;7.30;1.50;;;11.70;99.90;;;;;;5061328;28;20032;-63
2023/11/04 10:45:13;;;;;;;4.07;1.15;;;11.60;99.90;;;;;;5060532;28;20078;-63
2023/11/04 10:47:58;;;;;;;3.58;1.30;;;11.60;99.90;;;;;;5060794;28;20379;-63
2023/11/04 10:50:36;;;;;;;6.20;1.30;;;11.50;99.90;;;;;;5065382;28;20025;-63
2023/11/04 10:53:12;;;;;;;3.72;1.05;;;11.40;99.90;;;;;;5060672;28;20390;-65
2023/11/04 10:56:03;;;;;;;7.38;1.10;;;11.40;99.90;;;;;;5056885;28;20116;-65
2023/11/04 10:58:41;;;;;;;4.47;1.70;;;11.40;99.90;;;;;;5046600;28;20503;-65
2023/11/04 11:01:07;;;;;;;5.35;1.10;;;11.20;99.90;;;;;;5060026;28;20037;-63
2023/11/04 11:03:34;;;;;;;8.80;1.30;;;11.20;99.90;;;;;;5057826;28;20021;-65
2023/11/04 11:06:04;;;;;;;7.32;1.40;;;11.20;99.90;;;;;;5064320;28;20530;-60
2023/11/04 11:08:30;;;;;;;3.90;1.30;;;11.00;99.90;;;;;;5065335;28;20025;-64
2023/11/04 11:11:19;;;;;;;2.40;1.50;;;11.00;99.90;;;;;;5059029;28;20376;-64
2023/11/04 11:13:49;;;;;;;4.13;1.40;;;10.90;99.90;;;;;;5059315;28;20110;-62
2023/11/04 11:16:16;;;;;;;6.63;1.67;;;10.80;99.90;;;;;;5055884;28;20053;-61
2023/11/04 11:18:41;;;;;;;10.68;1.63;;;10.80;99.90;;;;;;5055127;28;20063;-64
2023/11/04 11:21:09;;;;;;;2.22;1.05;;;10.70;99.90;;;;;;5074109;28;20645;-61
2023/11/04 11:23:35;;;;;;;2.97;1.40;;;10.70;99.90;;;;;;5063342;28;20032;-64
2023/11/04 11:26:11;;;;;;;6.00;1.60;;;10.70;99.90;;;;;;5061908;28;20021;-63
2023/11/04 11:28:38;;;;;;;4.65;1.30;;;10.60;99.90;;;;;;5066706;28;20024;-64
2023/11/04 11:31:05;;;;;;;6.47;1.92;;;10.50;99.90;;;;;;5062652;28;20021;-64
2023/11/04 11:33:31;;;;;;;5.80;1.40;;;10.50;99.90;;;;;;5062303;28;20048;-65
2023/11/04 11:35:58;;;;;;;8.32;1.90;;;10.40;99.90;;;;;;5069635;28;20063;-63
2023/11/04 11:38:28;;;;;;;5.57;1.73;;;10.40;99.90;;;;;;5064049;28;20379;-64
2023/11/04 11:40:54;;;;;;;6.57;1.88;;;10.40;99.90;;;;;;5062063;28;20039;-65
2023/11/04 11:43:20;;;;;;;8.02;1.80;;;10.40;99.90;;;;;;5060276;28;20112;-65
2023/11/04 11:45:49;;;;;;;4.20;1.73;;;10.40;99.90;;;;;;5055142;28;20084;-64
2023/11/04 11:48:15;;;;;;;6.40;2.13;;;10.30;99.90;;;;;;5059003;28;20043;-65
2023/11/04 11:50:42;;;;;;;3.78;1.90;;;10.30;99.90;;;;;;5060629;28;20051;-64
2023/11/04 11:53:11;;;;;;;5.28;2.00;;;10.40;99.90;;;;;;5059003;28;20020;-64
2023/11/04 11:55:41;;;;;;;4.72;1.90;;;10.40;99.90;;;;;;5061569;28;20097;-65
2023/11/04 11:58:07;;;;;;;6.00;2.15;;;10.30;99.90;;;;;;5069054;28;20025;-64
2023/11/04 12:00:33;;;;;;;7.18;1.92;;;10.20;99.90;;;;;;5058590;28;20036;-62
2023/11/04 12:03:00;;;;;;;6.07;2.47;;;10.10;99.90;;;;;;5063857;28;20444;-63
2023/11/04 12:05:25;;;;;;;4.95;2.05;;;10.00;99.90;;;;;;5064730;28;20052;-63
2023/11/04 12:07:51;;;;;;;7.05;2.10;;;10.00;99.90;;;;;;5063566;28;20044;-64
2023/11/04 12:10:17;;;;;;;7.88;2.13;;;10.00;99.90;;;;;;5065504;28;20048;-62
2023/11/04 12:12:45;;;;;;;4.07;1.73;;;9.90;99.90;;;;;;5061976;28;20032;-64
2023/11/04 12:15:11;;;;;;;10.07;2.35;;;9.90;99.90;;;;;;5058817;28;20577;-64
2023/11/04 12:17:37;;;;;;;4.88;1.90;;;10.00;99.90;;;;;;5067166;28;20039;-64
2023/11/04 12:20:04;;;;;;;6.82;2.00;;;10.00;99.90;;;;;;5060208;28;20372;-64
2023/11/04 12:22:30;;;;;;;6.20;2.08;;;9.90;99.90;;;;;;5068073;28;20107;-64
2023/11/04 12:24:57;;;;;;;3.47;1.80;;;9.90;99.90;;;;;;5064448;28;20575;-64
2023/11/04 12:27:22;;;;;;;3.50;1.65;;;10.00;99.90;;;;;;5068571;28;20104;-64
2023/11/04 12:29:55;;;;;;;10.45;2.00;;;9.90;99.90;;;;;;5056847;28;20120;-64
2023/11/04 12:32:23;;;;;;;4.22;1.83;;;9.90;99.90;;;;;;5066502;28;20029;-65
2023/11/04 12:34:55;;;;;;;5.82;1.77;;;9.90;99.90;;;;;;5068136;28;20028;-64
2023/11/04 12:37:24;;;;;;;2.35;1.60;;;9.90;99.90;;;;;;5062236;28;20024;-65
2023/11/04 12:39:50;;;;;;;4.20;1.65;;;9.90;99.90;;;;;;5055962;28;20060;-65
2023/11/04 12:42:15;;;;;;;5.40;1.83;;;10.00;99.90;;;;;;5060134;28;20056;-63
2023/11/04 12:44:41;;;;;;;4.88;1.90;;;10.00;99.90;;;;;;5063109;28;20028;-64
2023/11/04 12:47:07;;;;;;;7.00;1.80;;;10.00;99.90;;;;;;5060946;28;20033;-67
2023/11/04 12:49:36;;;;;;;3.72;1.38;;;10.00;99.90;;;;;;5061376;28;20016;-64